Time;durP1;ratioP1;P1;durP2;ratioP2;P2;SDS_P1;SDS_P2;PMS_P1;PMS_P2;Temp;Humidity;BMP_temperature;BMP_pressure;BME280_temperature;BME280_humidity;BME280_pressure;Samples;Min_cycle;Max_cycle;Signal;HPM_P1;HPM_P2
2021/10/22 00:00:17;;;;;;;1.55;0.30;;;12.00;75.60;;;;;;5000825;28;20308;-78
2021/10/22 00:02:43;;;;;;;2.25;0.60;;;12.00;75.80;;;;;;5031022;28;20489;-78
2021/10/22 00:05:09;;;;;;;2.55;1.10;;;12.00;75.90;;;;;;5031173;28;20026;-79
2021/10/22 00:07:35;;;;;;;3.53;0.77;;;12.00;76.10;;;;;;5021655;28;20482;-78
2021/10/22 00:10:02;;;;;;;0.50;0.47;;;11.90;76.50;;;;;;5017557;28;20133;-78
2021/10/22 00:12:28;;;;;;;1.48;0.45;;;11.90;76.60;;;;;;5029500;28;20018;-79
2021/10/22 00:14:53;;;;;;;5.57;0.50;;;11.90;76.70;;;;;;5016807;28;20076;-77
2021/10/22 00:17:19;;;;;;;1.92;0.47;;;11.90;76.70;;;;;;5034254;28;20037;-79
2021/10/22 00:19:45;;;;;;;4.07;0.80;;;12.00;77.00;;;;;;5012558;28;20030;-78
2021/10/22 00:22:11;;;;;;;3.25;0.82;;;11.90;77.20;;;;;;5018523;28;20026;-77
2021/10/22 00:24:37;;;;;;;1.70;0.55;;;11.90;77.50;;;;;;5000270;28;20037;-78
2021/10/22 00:27:03;;;;;;;1.95;0.40;;;11.90;77.60;;;;;;5017264;28;20363;-78
2021/10/22 00:29:29;;;;;;;3.33;0.75;;;11.90;77.70;;;;;;5016922;28;20030;-79
2021/10/22 00:31:55;;;;;;;1.63;0.55;;;11.90;77.90;;;;;;5016518;28;20370;-78
2021/10/22 00:34:21;;;;;;;1.95;0.60;;;11.90;78.00;;;;;;5016719;28;20030;-78
2021/10/22 00:36:46;;;;;;;2.53;0.63;;;11.90;78.20;;;;;;5016442;28;20026;-77
2021/10/22 00:39:12;;;;;;;2.55;0.70;;;11.90;78.40;;;;;;5016007;28;20439;-78
2021/10/22 00:41:41;;;;;;;1.92;0.52;;;11.90;78.70;;;;;;4997984;28;20052;-77
2021/10/22 00:44:07;;;;;;;2.60;0.75;;;11.90;78.80;;;;;;5016341;28;20026;-77
2021/10/22 00:46:37;;;;;;;5.30;1.25;;;11.90;79.10;;;;;;5015500;28;20018;-77
2021/10/22 00:49:10;;;;;;;1.92;0.60;;;11.80;79.40;;;;;;5016246;28;20024;-78
2021/10/22 00:51:37;;;;;;;1.48;0.47;;;11.80;79.70;;;;;;5016873;28;20118;-78
2021/10/22 00:54:10;;;;;;;2.85;0.45;;;11.80;80.40;;;;;;5016477;28;20394;-78
2021/10/22 00:56:36;;;;;;;2.22;0.50;;;11.80;81.70;;;;;;5020610;28;20018;-77
2021/10/22 00:59:04;;;;;;;1.75;0.60;;;11.70;83.50;;;;;;5017865;28;20052;-77
2021/10/22 01:01:30;;;;;;;4.03;0.63;;;11.50;85.30;;;;;;5016617;28;20045;-78
2021/10/22 01:03:56;;;;;;;3.40;0.70;;;11.40;88.50;;;;;;5017431;28;20053;-77
2021/10/22 01:06:22;;;;;;;2.08;0.70;;;11.10;90.30;;;;;;5015158;28;20034;-77
2021/10/22 01:08:49;;;;;;;4.35;0.50;;;10.90;91.60;;;;;;5016326;28;20033;-77
2021/10/22 01:11:16;;;;;;;1.10;0.43;;;10.70;93.20;;;;;;5015733;28;20060;-77
2021/10/22 01:13:42;;;;;;;3.88;0.50;;;10.60;94.20;;;;;;5014981;28;20018;-77
2021/10/22 01:16:08;;;;;;;4.03;0.70;;;10.40;95.40;;;;;;5015189;28;20459;-77
2021/10/22 01:18:34;;;;;;;3.58;0.65;;;10.30;97.10;;;;;;4998674;28;20121;-76
2021/10/22 01:21:01;;;;;;;3.53;0.52;;;10.10;98.70;;;;;;5016144;28;20081;-77
2021/10/22 01:23:27;;;;;;;3.90;0.63;;;10.00;99.90;;;;;;5028565;28;20045;-75
2021/10/22 01:25:53;;;;;;;4.22;0.60;;;10.00;99.90;;;;;;5027184;28;20029;-77
2021/10/22 01:28:20;;;;;;;1.70;0.47;;;9.90;99.90;;;;;;5023423;28;20018;-77
2021/10/22 01:30:47;;;;;;;2.08;0.60;;;9.90;99.90;;;;;;4999315;28;20474;-76
2021/10/22 01:33:17;;;;;;;2.20;0.63;;;9.80;99.90;;;;;;5013971;28;20036;-76
2021/10/22 01:35:43;;;;;;;0.93;0.60;;;9.80;99.90;;;;;;5014959;28;20037;-77
2021/10/22 01:38:10;;;;;;;1.90;0.68;;;9.70;99.90;;;;;;5014830;28;20110;-77
2021/10/22 01:40:36;;;;;;;3.80;0.95;;;9.70;99.90;;;;;;5013170;28;20049;-79
2021/10/22 01:43:01;;;;;;;4.13;0.77;;;9.70;99.90;;;;;;5014010;28;20030;-78
2021/10/22 01:45:27;;;;;;;2.75;0.73;;;9.70;99.90;;;;;;5013912;28;20022;-78
2021/10/22 01:47:53;;;;;;;2.45;0.55;;;9.60;99.90;;;;;;4996379;28;20022;-78
2021/10/22 01:50:19;;;;;;;1.60;0.75;;;9.60;99.90;;;;;;4998206;28;20032;-77
2021/10/22 01:52:46;;;;;;;5.60;0.70;;;9.60;99.90;;;;;;5015187;28;20478;-78
2021/10/22 01:55:11;;;;;;;2.55;0.68;;;9.60;99.90;;;;;;5014250;28;20029;-78
2021/10/22 01:57:38;;;;;;;2.20;0.50;;;9.60;99.90;;;;;;4996967;28;20021;-77
2021/10/22 02:00:05;;;;;;;3.00;0.55;;;9.60;99.90;;;;;;4999004;28;20038;-77
2021/10/22 02:02:30;;;;;;;4.85;0.80;;;9.60;99.90;;;;;;5015040;28;20088;-77
2021/10/22 02:04:56;;;;;;;1.13;0.40;;;9.50;99.90;;;;;;5014293;28;20030;-78
2021/10/22 02:07:22;;;;;;;4.10;1.00;;;9.60;99.90;;;;;;5012902;28;20028;-77
2021/10/22 02:09:48;;;;;;;5.38;0.85;;;9.60;99.90;;;;;;5012761;28;20022;-76
2021/10/22 02:12:14;;;;;;;3.83;0.90;;;9.60;99.90;;;;;;4995031;28;20022;-76
2021/10/22 02:14:40;;;;;;;3.60;0.52;;;9.50;99.90;;;;;;5012388;28;20501;-77
2021/10/22 02:17:05;;;;;;;3.63;0.80;;;9.60;99.90;;;;;;5012844;28;20125;-77
2021/10/22 02:19:31;;;;;;;1.25;0.32;;;9.60;99.90;;;;;;5013662;28;20123;-78
2021/10/22 02:21:57;;;;;;;2.75;0.77;;;9.60;99.90;;;;;;4994908;28;20406;-78
2021/10/22 02:24:23;;;;;;;0.98;0.60;;;9.70;99.90;;;;;;5012608;28;20026;-77
2021/10/22 02:26:49;;;;;;;2.78;0.70;;;9.70;99.90;;;;;;5012793;28;20464;-77
2021/10/22 02:29:14;;;;;;;3.63;0.82;;;9.70;99.90;;;;;;5013549;28;20476;-78
2021/10/22 02:31:40;;;;;;;3.05;0.73;;;9.70;99.90;;;;;;4995330;28;20026;-78
2021/10/22 02:34:06;;;;;;;4.15;1.35;;;9.70;99.90;;;;;;5012946;28;20109;-77
2021/10/22 02:36:32;;;;;;;2.28;0.73;;;9.70;99.90;;;;;;5012341;28;20033;-78
2021/10/22 02:38:57;;;;;;;3.33;0.85;;;9.70;99.90;;;;;;5012957;28;20092;-78
2021/10/22 02:41:23;;;;;;;1.83;0.80;;;9.70;99.90;;;;;;5012655;28;20026;-78
2021/10/22 02:43:49;;;;;;;5.80;0.85;;;9.70;99.90;;;;;;4994403;28;20104;-77
2021/10/22 02:46:16;;;;;;;1.05;0.47;;;9.70;99.90;;;;;;5005270;28;20022;-78
2021/10/22 02:48:51;;;;;;;3.78;0.50;;;9.80;99.90;;;;;;5013435;28;20026;-78
2021/10/22 02:51:17;;;;;;;2.20;0.40;;;9.80;99.90;;;;;;5012311;28;20022;-78
2021/10/22 02:53:42;;;;;;;5.65;0.88;;;9.80;99.90;;;;;;5011943;28;20041;-78
2021/10/22 02:56:08;;;;;;;1.77;0.50;;;9.80;99.90;;;;;;5013658;28;20022;-78
2021/10/22 02:58:34;;;;;;;1.77;0.50;;;9.80;99.90;;;;;;5012935;28;20044;-77
2021/10/22 03:01:00;;;;;;;5.90;0.90;;;9.80;99.90;;;;;;5012663;28;20033;-77
2021/10/22 03:03:25;;;;;;;1.02;0.60;;;9.80;99.90;;;;;;5014487;28;20030;-77
2021/10/22 03:05:51;;;;;;;0.73;0.45;;;9.80;99.90;;;;;;5013343;28;20054;-77
2021/10/22 03:08:17;;;;;;;1.75;0.50;;;9.70;99.90;;;;;;5012911;28;20025;-77
2021/10/22 03:10:42;;;;;;;3.78;0.70;;;9.60;99.90;;;;;;5012979;28;20018;-77
2021/10/22 03:13:08;;;;;;;0.77;0.50;;;9.40;99.90;;;;;;5012705;28;20493;-78
2021/10/22 03:15:34;;;;;;;1.23;0.60;;;9.30;99.90;;;;;;5012770;28;20034;-78
2021/10/22 03:18:00;;;;;;;3.47;0.70;;;9.30;99.90;;;;;;5012879;28;20093;-79
2021/10/22 03:20:26;;;;;;;0.82;0.82;;;9.20;99.90;;;;;;5013052;28;20029;-78
2021/10/22 03:22:52;;;;;;;1.27;1.10;;;9.10;99.90;;;;;;5008112;28;20026;-75
2021/10/22 03:25:18;;;;;;;3.53;1.25;;;9.10;99.90;;;;;;5004873;28;20404;-74
2021/10/22 03:27:44;;;;;;;1.88;0.85;;;9.10;99.90;;;;;;5017029;28;20029;-76
2021/10/22 03:30:10;;;;;;;1.70;0.80;;;9.10;99.90;;;;;;5016226;28;20655;-77
2021/10/22 03:32:36;;;;;;;1.75;0.73;;;9.00;99.90;;;;;;5016449;28;20034;-74
2021/10/22 03:35:04;;;;;;;0.50;0.50;;;9.00;99.90;;;;;;5016280;28;20176;-75
2021/10/22 03:37:30;;;;;;;0.57;0.57;;;8.90;99.90;;;;;;4998478;28;20026;-75
2021/10/22 03:39:56;;;;;;;1.55;0.90;;;8.90;99.90;;;;;;5015596;28;20364;-74
2021/10/22 03:42:22;;;;;;;0.85;0.43;;;8.90;99.90;;;;;;5015727;28;20025;-76
2021/10/22 03:44:48;;;;;;;0.70;0.70;;;8.90;99.90;;;;;;5015518;28;20033;-75
2021/10/22 03:47:13;;;;;;;1.35;0.63;;;9.00;99.90;;;;;;4998105;28;20109;-75
2021/10/22 03:49:39;;;;;;;1.33;0.70;;;8.90;99.90;;;;;;4998381;28;20116;-77
2021/10/22 03:52:08;;;;;;;1.27;0.80;;;8.90;99.90;;;;;;4997842;28;20033;-75
2021/10/22 03:54:34;;;;;;;0.57;0.52;;;8.90;99.90;;;;;;5011761;28;20027;-77
2021/10/22 03:57:00;;;;;;;1.73;0.75;;;8.80;99.90;;;;;;4997206;28;20430;-76
2021/10/22 03:59:25;;;;;;;2.47;0.88;;;8.90;99.90;;;;;;4996277;28;20065;-76
2021/10/22 04:01:51;;;;;;;0.93;0.75;;;8.80;99.90;;;;;;4995932;28;20030;-76
2021/10/22 04:04:17;;;;;;;1.42;0.98;;;8.50;99.90;;;;;;5005863;28;20022;-75
2021/10/22 04:06:43;;;;;;;1.17;1.08;;;8.30;99.90;;;;;;5015196;28;20101;-76
2021/10/22 04:09:09;;;;;;;1.58;1.10;;;8.10;99.90;;;;;;5015579;28;20022;-76
2021/10/22 04:11:35;;;;;;;1.90;1.05;;;8.00;99.90;;;;;;4998484;28;20048;-81
2021/10/22 04:14:02;;;;;;;3.30;1.17;;;7.90;99.90;;;;;;5020618;28;20101;-79
2021/10/22 04:16:28;;;;;;;1.27;1.17;;;7.80;99.90;;;;;;4998108;28;20030;-78
2021/10/22 04:18:54;;;;;;;1.30;1.10;;;7.80;99.90;;;;;;4997455;28;20026;-76
2021/10/22 04:21:20;;;;;;;1.10;1.00;;;7.80;99.90;;;;;;5015067;28;20036;-75
2021/10/22 04:23:45;;;;;;;1.95;0.88;;;7.80;99.90;;;;;;5015030;28;20057;-78
2021/10/22 04:26:12;;;;;;;1.27;1.00;;;7.80;99.90;;;;;;4996675;28;20034;-76
2021/10/22 04:28:38;;;;;;;1.40;1.05;;;7.80;99.90;;;;;;5014728;28;20095;-76
2021/10/22 04:31:04;;;;;;;1.98;1.10;;;7.80;99.90;;;;;;4997386;28;20022;-77
2021/10/22 04:33:30;;;;;;;2.10;1.00;;;7.80;99.90;;;;;;5013947;28;20022;-76
2021/10/22 04:35:55;;;;;;;1.30;1.20;;;7.80;99.90;;;;;;5015813;28;20117;-75
2021/10/22 04:40:51;;;;;;;4.88;0.90;;;7.80;99.90;;;;;;5014244;28;20076;-75
2021/10/22 04:43:18;;;;;;;1.20;1.10;;;7.70;99.90;;;;;;4997248;28;20030;-75
2021/10/22 04:45:47;;;;;;;2.72;1.15;;;7.60;99.90;;;;;;5014784;28;20382;-76
2021/10/22 04:48:14;;;;;;;2.75;1.20;;;7.50;99.90;;;;;;5014379;28;20021;-76
2021/10/22 04:50:46;;;;;;;2.17;1.10;;;7.50;99.90;;;;;;4997167;28;20022;-76
2021/10/22 04:53:11;;;;;;;3.40;1.17;;;7.50;99.90;;;;;;5014439;28;20029;-76
2021/10/22 04:55:38;;;;;;;2.35;1.40;;;7.50;99.90;;;;;;4996904;28;20033;-76
2021/10/22 04:58:05;;;;;;;1.55;1.40;;;7.50;99.90;;;;;;5013825;28;20030;-76
2021/10/22 05:00:31;;;;;;;2.00;1.30;;;7.40;99.90;;;;;;5014538;28;20030;-77
2021/10/22 05:02:57;;;;;;;3.20;1.77;;;7.40;99.90;;;;;;5016282;28;20026;-77
2021/10/22 05:05:23;;;;;;;3.85;1.30;;;7.40;99.90;;;;;;4997215;28;20041;-76
2021/10/22 05:07:49;;;;;;;2.13;1.55;;;7.40;99.90;;;;;;5013806;28;20275;-76
2021/10/22 05:10:15;;;;;;;2.58;1.40;;;7.50;99.90;;;;;;5014199;28;20018;-77
2021/10/22 05:12:40;;;;;;;3.00;1.70;;;7.50;99.90;;;;;;5013795;28;20026;-77
2021/10/22 05:15:08;;;;;;;4.70;2.05;;;7.60;99.90;;;;;;5014354;28;20025;-77
2021/10/22 05:17:34;;;;;;;2.75;2.08;;;7.60;99.90;;;;;;5013223;28;20506;-77
2021/10/22 05:20:06;;;;;;;2.22;1.38;;;7.60;99.90;;;;;;5013725;28;20034;-77
2021/10/22 05:22:32;;;;;;;2.47;1.90;;;7.60;99.90;;;;;;5013858;28;20517;-76
2021/10/22 05:24:57;;;;;;;5.45;2.15;;;7.70;99.90;;;;;;5013365;28;20034;-76
2021/10/22 05:27:23;;;;;;;3.63;2.08;;;7.70;99.90;;;;;;4995629;28;20026;-76
2021/10/22 05:29:49;;;;;;;2.97;1.67;;;7.70;99.90;;;;;;4997427;28;20018;-77
2021/10/22 05:32:15;;;;;;;4.07;1.60;;;7.60;99.90;;;;;;5013715;28;20014;-76
2021/10/22 05:34:40;;;;;;;7.63;1.95;;;7.40;99.90;;;;;;5013961;28;20038;-76
2021/10/22 05:37:06;;;;;;;3.92;1.88;;;7.20;99.90;;;;;;5013433;28;20018;-76
2021/10/22 05:39:32;;;;;;;6.00;2.15;;;7.20;99.90;;;;;;4996154;28;20034;-76
2021/10/22 05:41:58;;;;;;;8.25;1.95;;;7.10;99.90;;;;;;5014204;28;20470;-76
2021/10/22 05:44:24;;;;;;;3.42;1.58;;;7.10;99.90;;;;;;5013310;28;20030;-77
2021/10/22 05:46:54;;;;;;;8.68;2.20;;;7.00;99.90;;;;;;4996082;28;20534;-76
2021/10/22 05:49:21;;;;;;;6.88;2.58;;;6.90;99.90;;;;;;4994849;28;20018;-76
2021/10/22 05:51:47;;;;;;;7.10;2.33;;;6.90;99.90;;;;;;5013739;28;20046;-76
2021/10/22 05:54:13;;;;;;;7.50;2.10;;;6.90;99.90;;;;;;5013474;28;20092;-77
2021/10/22 05:56:39;;;;;;;5.57;2.33;;;7.10;99.90;;;;;;5016000;28;20064;-78
2021/10/22 05:59:05;;;;;;;6.78;1.88;;;7.10;99.90;;;;;;5000322;28;20081;-77
2021/10/22 06:01:31;;;;;;;6.43;1.88;;;7.00;99.90;;;;;;4999068;28;20088;-78
2021/10/22 06:03:57;;;;;;;11.57;2.25;;;7.00;99.90;;;;;;5019440;28;20018;-77
2021/10/22 06:06:23;;;;;;;7.00;2.95;;;6.90;99.90;;;;;;5020097;28;20037;-77
2021/10/22 06:08:49;;;;;;;7.30;1.65;;;7.00;99.90;;;;;;5002980;28;20022;-78
2021/10/22 06:11:15;;;;;;;12.20;2.13;;;7.00;99.90;;;;;;5015928;28;20018;-78
2021/10/22 06:13:42;;;;;;;12.18;2.92;;;7.00;99.90;;;;;;5014105;28;20017;-77
2021/10/22 06:16:09;;;;;;;3.63;1.40;;;7.00;99.90;;;;;;4997943;28;20026;-78
2021/10/22 06:18:37;;;;;;;7.78;2.20;;;7.10;99.90;;;;;;4996743;28;20474;-78
2021/10/22 06:21:07;;;;;;;4.18;1.83;;;7.20;99.90;;;;;;5016511;28;20030;-77
2021/10/22 06:26:17;;;;;;;7.88;2.05;;;7.30;99.90;;;;;;5010513;28;20045;-78
2021/10/22 06:28:43;;;;;;;8.38;2.30;;;7.30;99.90;;;;;;5003999;28;20033;-77
2021/10/22 06:31:14;;;;;;;6.50;2.03;;;7.40;99.90;;;;;;4994850;28;20027;-79
2021/10/22 06:33:40;;;;;;;6.85;1.92;;;7.40;99.90;;;;;;4997572;28;20490;-78
2021/10/22 06:36:07;;;;;;;7.95;2.38;;;7.50;99.90;;;;;;4997939;28;20033;-78
2021/10/22 06:38:34;;;;;;;7.75;2.95;;;7.60;99.90;;;;;;4998038;28;20129;-78
2021/10/22 06:41:00;;;;;;;6.60;2.30;;;7.70;99.90;;;;;;5014994;28;20038;-78
2021/10/22 06:43:29;;;;;;;5.13;2.25;;;7.80;99.90;;;;;;4997928;28;20053;-79
2021/10/22 06:45:55;;;;;;;5.68;2.47;;;7.80;99.90;;;;;;4999028;28;20033;-78
2021/10/22 06:48:21;;;;;;;5.63;1.65;;;7.90;99.90;;;;;;4996868;28;20022;-78
2021/10/22 06:50:47;;;;;;;4.57;2.08;;;7.90;99.90;;;;;;5009245;28;20468;-78
2021/10/22 06:53:14;;;;;;;4.68;2.40;;;7.90;99.90;;;;;;5010049;28;20072;-78
2021/10/22 06:55:40;;;;;;;5.97;2.00;;;7.90;99.90;;;;;;5016143;28;20049;-78
2021/10/22 06:58:06;;;;;;;7.93;2.17;;;8.00;99.90;;;;;;5017042;28;20052;-79
2021/10/22 07:00:34;;;;;;;3.47;1.70;;;8.10;99.90;;;;;;5027744;28;20055;-79
2021/10/22 07:03:00;;;;;;;4.20;1.92;;;8.10;99.90;;;;;;5033952;28;20026;-78
2021/10/22 07:07:56;;;;;;;3.03;1.73;;;8.40;99.90;;;;;;5019610;28;20021;-78
2021/10/22 07:10:23;;;;;;;3.60;1.80;;;8.50;99.90;;;;;;5023225;28;20052;-79
2021/10/22 07:12:49;;;;;;;6.38;1.88;;;8.50;99.90;;;;;;5017203;28;20042;-77
2021/10/22 07:15:18;;;;;;;2.50;1.75;;;8.50;99.90;;;;;;5018055;28;20029;-78
2021/10/22 07:17:47;;;;;;;2.00;1.65;;;8.60;99.90;;;;;;5018447;28;20010;-79
2021/10/22 07:20:14;;;;;;;3.13;1.70;;;8.60;99.90;;;;;;5028241;28;20044;-78
2021/10/22 07:22:51;;;;;;;2.38;1.52;;;8.60;99.90;;;;;;5019154;28;20029;-77
2021/10/22 07:25:18;;;;;;;5.97;1.80;;;8.50;99.90;;;;;;5012874;28;20064;-78
2021/10/22 07:27:45;;;;;;;3.17;1.65;;;8.70;99.90;;;;;;5005550;28;20425;-78
2021/10/22 07:30:11;;;;;;;4.03;1.42;;;8.70;99.90;;;;;;5003460;28;20026;-77
2021/10/22 07:32:37;;;;;;;7.65;2.20;;;8.70;99.90;;;;;;5002486;28;20022;-79
2021/10/22 07:35:04;;;;;;;4.95;2.30;;;8.80;99.90;;;;;;5022931;28;20022;-77
2021/10/22 07:37:30;;;;;;;7.63;2.15;;;8.90;99.90;;;;;;5022008;28;20025;-77
2021/10/22 07:39:56;;;;;;;4.53;1.65;;;8.90;99.90;;;;;;5022489;28;20125;-77
2021/10/22 07:42:26;;;;;;;2.88;1.50;;;8.80;99.90;;;;;;5020585;28;20029;-78
2021/10/22 07:44:54;;;;;;;4.40;1.67;;;8.80;99.90;;;;;;5009943;28;20025;-77
2021/10/22 07:47:21;;;;;;;5.53;1.80;;;8.80;99.90;;;;;;5010684;28;20033;-78
2021/10/22 07:49:49;;;;;;;5.45;2.17;;;8.80;99.90;;;;;;5026244;28;20459;-78
2021/10/22 07:52:17;;;;;;;8.27;2.25;;;8.80;99.90;;;;;;5027851;28;20084;-77
2021/10/22 07:54:44;;;;;;;6.97;1.90;;;8.60;99.90;;;;;;5025762;28;20249;-77
2021/10/22 07:57:10;;;;;;;11.52;1.95;;;8.60;99.90;;;;;;5021220;28;20471;-78
2021/10/22 07:59:36;;;;;;;6.32;1.85;;;8.50;99.90;;;;;;5021404;28;20075;-76
2021/10/22 08:02:02;;;;;;;8.90;2.10;;;8.40;99.90;;;;;;5005878;28;20090;-78
2021/10/22 08:04:28;;;;;;;7.78;2.95;;;8.40;99.90;;;;;;5022644;28;20073;-77
2021/10/22 08:06:54;;;;;;;6.63;1.90;;;8.40;99.90;;;;;;5020399;28;20029;-77
2021/10/22 08:09:20;;;;;;;6.82;2.13;;;8.40;99.90;;;;;;5023610;28;20022;-77
2021/10/22 08:11:47;;;;;;;15.32;2.53;;;8.40;99.90;;;;;;5002086;28;20084;-79
2021/10/22 08:14:13;;;;;;;9.38;2.60;;;8.40;99.90;;;;;;5003263;28;20030;-78
2021/10/22 08:16:39;;;;;;;7.00;1.80;;;8.40;99.90;;;;;;5002225;28;20037;-78
2021/10/22 08:19:05;;;;;;;9.98;2.25;;;8.40;99.90;;;;;;5000954;28;20032;-79
2021/10/22 08:24:07;;;;;;;6.85;1.98;;;8.60;99.90;;;;;;5017466;28;20706;-78
2021/10/22 08:26:33;;;;;;;5.50;1.83;;;8.70;99.90;;;;;;5006254;28;20463;-78
2021/10/22 08:28:59;;;;;;;7.55;2.22;;;8.60;99.90;;;;;;5004641;28;20026;-79
2021/10/22 08:31:26;;;;;;;4.95;2.30;;;8.70;99.90;;;;;;5001319;28;20018;-78
2021/10/22 08:33:51;;;;;;;5.93;1.90;;;8.80;99.90;;;;;;5018336;28;20021;-78
2021/10/22 08:36:17;;;;;;;8.65;2.03;;;8.90;99.90;;;;;;5001100;28;20357;-79
2021/10/22 08:38:43;;;;;;;5.47;2.00;;;9.00;99.90;;;;;;4999983;28;20041;-79
2021/10/22 08:41:12;;;;;;;8.77;2.03;;;9.00;99.90;;;;;;5017282;28;20088;-78
2021/10/22 08:43:40;;;;;;;6.70;2.58;;;9.00;99.90;;;;;;5017460;28;20033;-79
2021/10/22 08:46:14;;;;;;;5.28;1.70;;;9.00;99.90;;;;;;5017007;28;20046;-79
2021/10/22 08:48:43;;;;;;;7.95;2.17;;;9.20;99.90;;;;;;5000045;28;20036;-79
2021/10/22 08:51:09;;;;;;;6.63;2.28;;;9.30;98.40;;;;;;5017748;28;20049;-79
2021/10/22 08:53:37;;;;;;;3.08;1.70;;;9.40;98.30;;;;;;5017032;28;20014;-78
2021/10/22 08:56:05;;;;;;;3.47;1.60;;;9.40;98.90;;;;;;5016810;28;20486;-78
2021/10/22 08:58:31;;;;;;;3.75;1.42;;;9.70;99.80;;;;;;5018466;28;20049;-78
2021/10/22 09:00:58;;;;;;;1.95;1.42;;;9.90;99.20;;;;;;5018390;28;20101;-77
2021/10/22 09:03:24;;;;;;;5.47;1.80;;;10.10;96.60;;;;;;5002222;28;20040;-77
2021/10/22 09:06:02;;;;;;;5.28;2.15;;;10.00;96.40;;;;;;5003231;28;20076;-78
2021/10/22 09:08:38;;;;;;;2.20;1.50;;;10.00;97.20;;;;;;5022563;28;20022;-77
2021/10/22 09:11:06;;;;;;;5.43;1.63;;;10.00;96.10;;;;;;5023062;28;20026;-77
2021/10/22 09:13:35;;;;;;;4.88;1.58;;;10.10;96.50;;;;;;5023706;28;20022;-77
2021/10/22 09:16:22;;;;;;;3.50;1.15;;;10.10;96.20;;;;;;5022030;28;20041;-77
2021/10/22 09:18:50;;;;;;;6.80;1.65;;;10.10;96.40;;;;;;5024106;28;20394;-78
2021/10/22 09:21:27;;;;;;;3.88;1.63;;;10.30;94.30;;;;;;5023900;28;20112;-78
2021/10/22 09:24:13;;;;;;;4.25;1.70;;;10.30;93.90;;;;;;5004979;28;20175;-77
2021/10/22 09:26:39;;;;;;;3.75;1.58;;;10.30;93.10;;;;;;5003748;28;20026;-78
2021/10/22 09:29:20;;;;;;;3.72;1.88;;;10.50;93.80;;;;;;4985594;28;20037;-78
2021/10/22 09:31:49;;;;;;;2.83;1.15;;;10.80;93.80;;;;;;5011152;28;20086;-79
2021/10/22 09:34:32;;;;;;;4.20;1.58;;;10.90;93.40;;;;;;4999518;28;20029;-78
2021/10/22 09:37:10;;;;;;;5.57;1.70;;;11.00;91.90;;;;;;5000261;28;20072;-80
2021/10/22 09:39:38;;;;;;;2.47;1.20;;;10.90;90.20;;;;;;5002495;28;20022;-79
2021/10/22 09:42:10;;;;;;;4.95;1.38;;;10.90;90.80;;;;;;5019198;28;20026;-78
2021/10/22 09:44:41;;;;;;;3.03;1.10;;;10.90;89.20;;;;;;5016495;28;20072;-78
2021/10/22 09:47:07;;;;;;;2.47;0.93;;;10.80;90.20;;;;;;5017485;28;20105;-79
2021/10/22 09:49:47;;;;;;;9.35;1.65;;;10.80;88.90;;;;;;5001572;28;20022;-79
2021/10/22 09:52:18;;;;;;;3.75;1.05;;;10.70;90.20;;;;;;4999638;28;20108;-78
2021/10/22 09:57:24;;;;;;;2.40;1.10;;;10.90;90.90;;;;;;5002601;28;20039;-80
2021/10/22 10:00:08;;;;;;;5.70;1.33;;;11.10;90.80;;;;;;5005389;28;20026;-80
2021/10/22 10:02:41;;;;;;;7.47;1.95;;;11.20;90.50;;;;;;5004862;28;20038;-80
2021/10/22 10:05:09;;;;;;;6.22;1.95;;;11.30;86.00;;;;;;5005318;28;20017;-80
2021/10/22 10:07:46;;;;;;;5.70;1.83;;;11.30;85.40;;;;;;5005818;28;20105;-80
2021/10/22 10:10:14;;;;;;;2.90;1.55;;;11.40;84.80;;;;;;5003160;28;20021;-81
2021/10/22 10:12:41;;;;;;;2.42;1.10;;;11.20;85.20;;;;;;5010590;28;20034;-81
2021/10/22 10:15:10;;;;;;;5.82;1.27;;;11.00;86.80;;;;;;5008401;28;20030;-81
2021/10/22 10:17:39;;;;;;;5.13;1.52;;;11.00;87.00;;;;;;5004723;28;20022;-81
2021/10/22 10:20:07;;;;;;;3.00;1.60;;;10.90;84.40;;;;;;5010598;28;20023;-81
2021/10/22 10:22:36;;;;;;;3.13;1.17;;;10.80;84.60;;;;;;5012929;28;20046;-81
2021/10/22 10:25:05;;;;;;;3.42;1.10;;;10.70;84.60;;;;;;5003838;28;20501;-81
2021/10/22 10:27:47;;;;;;;1.85;0.98;;;10.80;85.70;;;;;;4984806;28;20069;-80
2021/10/22 10:30:15;;;;;;;2.38;1.35;;;11.00;85.40;;;;;;5005191;28;20030;-81
2021/10/22 10:32:42;;;;;;;2.90;1.10;;;11.30;83.50;;;;;;4999944;28;20034;-80
2021/10/22 10:35:13;;;;;;;5.65;1.60;;;11.40;83.60;;;;;;4999105;28;20430;-80
2021/10/22 10:37:47;;;;;;;4.68;1.48;;;11.50;80.10;;;;;;5003421;28;20417;-81
2021/10/22 10:40:28;;;;;;;4.72;1.42;;;11.50;80.40;;;;;;5006312;28;20113;-81
2021/10/22 10:43:03;;;;;;;7.25;1.63;;;11.50;80.60;;;;;;5007604;28;20095;-82
2021/10/22 10:45:29;;;;;;;3.67;1.27;;;11.60;80.40;;;;;;5006770;28;20030;-81
2021/10/22 10:48:06;;;;;;;3.20;1.35;;;11.60;81.00;;;;;;4989198;28;20022;-81
2021/10/22 10:50:52;;;;;;;5.97;1.50;;;11.60;81.70;;;;;;5009474;28;20018;-81
2021/10/22 10:53:32;;;;;;;6.18;2.30;;;11.70;79.20;;;;;;5012164;28;20030;-81
2021/10/22 10:55:59;;;;;;;4.70;1.70;;;11.60;79.20;;;;;;5010272;28;20045;-81
2021/10/22 10:58:25;;;;;;;4.80;1.45;;;11.60;79.60;;;;;;5010038;28;20049;-80
2021/10/22 11:00:57;;;;;;;3.45;1.50;;;11.50;79.60;;;;;;5007632;28;20026;-81
2021/10/22 11:03:24;;;;;;;2.40;1.33;;;11.60;78.90;;;;;;4990755;28;20030;-81
2021/10/22 11:05:52;;;;;;;2.78;1.52;;;11.60;78.60;;;;;;5008060;28;20031;-81
2021/10/22 11:08:19;;;;;;;5.47;2.15;;;11.60;79.50;;;;;;5008766;28;20026;-80
2021/10/22 11:11:17;;;;;;;5.10;1.67;;;11.60;78.30;;;;;;5007586;28;20041;-82
2021/10/22 11:14:04;;;;;;;3.45;1.27;;;11.50;78.10;;;;;;5006297;28;20026;-81
2021/10/22 11:16:39;;;;;;;8.07;1.98;;;11.50;79.70;;;;;;5006858;28;20018;-80
2021/10/22 11:19:08;;;;;;;4.32;1.67;;;11.60;78.90;;;;;;5006145;28;20033;-81
2021/10/22 11:21:36;;;;;;;4.70;1.50;;;11.70;76.10;;;;;;5007275;28;20085;-81
2021/10/22 11:24:04;;;;;;;6.35;1.88;;;11.60;76.50;;;;;;5006709;28;20031;-81
2021/10/22 11:26:31;;;;;;;2.92;0.90;;;11.50;78.00;;;;;;5005944;28;20305;-82
2021/10/22 11:29:01;;;;;;;3.35;1.20;;;11.60;79.20;;;;;;5006007;28;21786;-82
2021/10/22 11:31:44;;;;;;;5.70;1.17;;;11.90;79.10;;;;;;4988817;28;20022;-81
2021/10/22 11:34:22;;;;;;;3.97;1.42;;;12.30;76.60;;;;;;5006586;28;20109;-82
2021/10/22 11:37:05;;;;;;;4.45;1.55;;;12.60;75.30;;;;;;4988508;28;20030;-81
2021/10/22 11:39:34;;;;;;;5.63;1.73;;;12.60;73.00;;;;;;5005557;28;20541;-81
2021/10/22 11:42:11;;;;;;;7.28;1.65;;;12.50;72.10;;;;;;5004815;28;20153;-81
2021/10/22 11:44:38;;;;;;;2.55;1.17;;;12.40;72.50;;;;;;5004241;28;20037;-81
2021/10/22 11:47:05;;;;;;;6.07;1.05;;;12.30;73.30;;;;;;5002903;28;20170;-81
2021/10/22 11:49:36;;;;;;;7.30;1.70;;;12.10;72.70;;;;;;5005423;28;20023;-82
2021/10/22 11:52:04;;;;;;;6.22;1.80;;;12.00;74.10;;;;;;5003802;28;20431;-80
2021/10/22 11:54:40;;;;;;;4.80;1.30;;;12.00;75.10;;;;;;5005873;28;20015;-81
2021/10/22 11:57:11;;;;;;;6.10;1.42;;;12.00;75.80;;;;;;5004649;28;20501;-81
2021/10/22 11:59:48;;;;;;;2.60;1.00;;;12.10;74.00;;;;;;5005069;28;20442;-82
2021/10/22 12:02:17;;;;;;;5.88;1.90;;;12.20;74.70;;;;;;5002512;28;20030;-82
2021/10/22 12:04:43;;;;;;;4.13;1.58;;;12.20;74.10;;;;;;5004432;28;20045;-82
2021/10/22 12:07:10;;;;;;;3.70;1.20;;;12.20;74.90;;;;;;5005513;28;20398;-82
2021/10/22 12:09:41;;;;;;;1.67;0.75;;;12.30;73.20;;;;;;5005022;28;20018;-81
2021/10/22 12:12:10;;;;;;;3.45;1.20;;;12.40;74.60;;;;;;4992921;28;20034;-80
2021/10/22 12:14:39;;;;;;;4.55;1.67;;;12.50;74.60;;;;;;5013825;28;20045;-80
2021/10/22 12:17:11;;;;;;;3.50;1.30;;;12.50;74.30;;;;;;5015187;28;20086;-81
2021/10/22 12:19:38;;;;;;;;;;;12.50;74.00;;;;;;4985867;28;20030;-81
2021/10/22 12:22:04;;;;;;;3.85;1.10;;;12.50;74.50;;;;;;5002384;28;19949;-82
2021/10/22 12:24:45;;;;;;;6.30;1.77;;;12.60;74.70;;;;;;4985000;28;20030;-81
2021/10/22 12:27:11;;;;;;;5.88;1.70;;;13.00;72.60;;;;;;5004182;28;20078;-81
2021/10/22 12:29:59;;;;;;;3.50;1.25;;;13.40;69.60;;;;;;5005113;28;20026;-82
2021/10/22 12:32:34;;;;;;;5.63;1.50;;;13.60;66.00;;;;;;5003301;28;20090;-81
2021/10/22 12:35:02;;;;;;;7.35;1.20;;;13.70;65.90;;;;;;5005784;28;20031;-81
2021/10/22 12:37:57;;;;;;;6.90;1.13;;;13.80;65.90;;;;;;5001855;28;20479;-80
2021/10/22 12:40:25;;;;;;;5.82;1.55;;;13.90;65.50;;;;;;5000950;28;20037;-81
2021/10/22 12:43:03;;;;;;;5.82;1.45;;;13.70;65.80;;;;;;4983212;28;20133;-81
2021/10/22 12:45:28;;;;;;;5.13;2.17;;;13.60;64.00;;;;;;5001495;28;20038;-81
2021/10/22 12:47:56;;;;;;;6.50;1.70;;;13.40;65.50;;;;;;4983317;28;20364;-81
2021/10/22 12:50:31;;;;;;;3.58;1.30;;;13.20;65.90;;;;;;5001194;28;20423;-81
2021/10/22 12:52:59;;;;;;;3.47;1.50;;;13.10;67.90;;;;;;5001489;28;20038;-82
2021/10/22 12:55:27;;;;;;;5.18;1.75;;;13.00;69.10;;;;;;4999752;28;20077;-82
2021/10/22 12:58:21;;;;;;;3.40;1.40;;;12.90;69.20;;;;;;5000703;28;20022;-81
2021/10/22 13:01:14;;;;;;;5.63;1.48;;;12.80;70.50;;;;;;5000134;28;20030;-81
2021/10/22 13:03:42;;;;;;;4.05;1.25;;;12.60;71.30;;;;;;4983754;28;20019;-82
2021/10/22 13:09:04;;;;;;;3.72;0.95;;;12.50;72.90;;;;;;5001354;28;20018;-82
2021/10/22 13:22:10;;;;;;;3.00;1.38;;;12.20;74.50;;;;;;5004257;28;20057;-82
2021/10/22 13:24:38;;;;;;;3.80;1.13;;;12.20;73.20;;;;;;5001748;28;20023;-82